KSBPKSMO

Guest
Details From KSBP - San Luis Co Rgnl
To KSMO - SANTA MONICA MUNI
Flight Number -
Tags generated
Created
Modified
Stats Distance 131 nm / 243 km
Max Altitude 11,000 ft / 3,353 m
Waypoints 3
Social Downloads 0
Likes 0
Share VATSIM

Download

Looking for another format? Having issues loading an existing format? Contact us
Advertisement - Login to hide

Notes

Basic altitude profile: - Ascent Rate: 1200ft/min - Ascent Speed: 120kts - Cruise Altitude: 11000ft - Cruise Speed: 170kts - Descent Rate: 800ft/min - Descent Speed: 185kts

Route

KSBP OHIGH KSMO

ID Type Via Altitude Latitude Longitude Leg Dist Tot Dist Heading (true) Name
O KSBP APT - 0 ft / 0 m 35.23714˚ -120.64346˚ - 0 nm - San Luis Co Rgnl
OHIGH FIX - 11,000 ft / 3,353 m 34.43135˚ -119.31082˚ 81 nm 81 nm 126° / 127° -
O KSMO APT - 0 ft / 0 m 34.01585˚ -118.45133˚ 49 nm 131 nm 120° / 121° SANTA MONICA MUNI

Altitude Profile

Advertisement - Login to hide

KSBP

Details ICAO KSBP (SBP)
Name San Luis Co Rgnl
Region United States
Timezone America/Los_Angeles (UTC-8.0)
Stats Elevation 212 ft / 65 m (AMSL)
Location 35.237141° -120.643460°
Runways 2
Magnetic Variation 12.678° E

METAR

KSBP 150056Z 32007KT 10SM CLR 16/08 A3006 RMK AO2 SLP181 T01610083

Decode

TAF

KSBP 142343Z 1500/1524 30008KT P6SM SKC FM150300 VRB03KT P6SM SKC FM152000 30010KT P6SM SCT250

Decode

Departure Runways

ID Width Length Bearing (true) Bearing (mag) Surface Threshold Offset Overrun Length
07 98 ft / 30 m 2,522 ft / 769 m 89.79° 77.11° Asphalt 0 ft / 0 m 0 ft / 0 m
11 151 ft / 46 m 6,106 ft / 1,861 m 124.87° 112.19° Asphalt 801 ft / 244 m 600 ft / 183 m
25 98 ft / 30 m 2,522 ft / 769 m 269.80° 257.12° Asphalt 0 ft / 0 m 0 ft / 0 m
29 151 ft / 46 m 6,106 ft / 1,861 m 304.88° 292.20° Asphalt 499 ft / 152 m 600 ft / 183 m

KSMO

Details ICAO KSMO (SMO)
Name SANTA MONICA MUNI
Region United States
Timezone America/Los_Angeles (UTC-8.0)
Stats Elevation 177 ft / 54 m (AMSL)
Location 34.015847° -118.451329°
Runways 1
Magnetic Variation 12.029° E

METAR

KSMO 150051Z AUTO 22004KT 8SM CLR 17/13 A3001 RMK AO2 SLP161 T01670133

Decode

TAF

TAF KSMO 142355Z 1500/1524 22005KT P6SM SKC FM150200 VRB03KT P6SM SKC FM150700 04005KT P6SM SKC FM152000 22005KT P6SM SKC

Decode

Destination Runways

ID Width Length Bearing (true) Bearing (mag) Surface Threshold Offset Overrun Length
03 151 ft / 46 m 4,978 ft / 1,517 m 44.45° 32.42° Asphalt 0 ft / 0 m 0 ft / 0 m
21 151 ft / 46 m 4,978 ft / 1,517 m 224.46° 212.43° Asphalt 0 ft / 0 m 0 ft / 0 m

Popular Alternatives